Terminal Aerodrome Forecast
Issued by NWS

Home | Current Version | Previous Version | Graphics & Text | Print | Product List | Glossary On
Versions: 1 2 3 4 5 6 7 8 9 10 11 12 13 14 15 16 17
366
FTUS41 KCLE 282329
TAFFDY
TAF
KFDY 282329Z 2900/2924 02005KT P6SM SCT150 OVC200
      TEMPO 2900/2901 6SM -SHRA BKN080 OVC150
     FM291000 04004KT 5SM BR SKC
     FM291300 07008KT P6SM SCT050=

USA.gov is the U.S. government's official web portal to all federal, state and local government web resources and services.